sensor_id;sensor_type;location;lat;lon;timestamp;P1;durP1;ratioP1;P2;durP2;ratioP2
38190;SDS011;25191;47.510;19.124;2022-12-29T00:04:16;3.63;;;2.75;;
38190;SDS011;25191;47.510;19.124;2022-12-29T00:14:16;4.22;;;3.25;;
38190;SDS011;25191;47.510;19.124;2022-12-29T00:24:35;4.22;;;2.88;;
38190;SDS011;25191;47.510;19.124;2022-12-29T00:34:54;3.88;;;3.00;;
38190;SDS011;25191;47.510;19.124;2022-12-29T00:45:10;4.65;;;3.03;;
38190;SDS011;25191;47.510;19.124;2022-12-29T00:55:11;5.25;;;2.75;;
38190;SDS011;25191;47.510;19.124;2022-12-29T01:05:11;4.63;;;3.40;;
38190;SDS011;25191;47.510;19.124;2022-12-29T01:15:13;5.20;;;3.42;;
38190;SDS011;25191;47.510;19.124;2022-12-29T01:25:14;3.92;;;3.08;;
38190;SDS011;25191;47.510;19.124;2022-12-29T01:35:33;4.70;;;3.05;;
38190;SDS011;25191;47.510;19.124;2022-12-29T01:45:33;4.05;;;2.80;;
38190;SDS011;25191;47.510;19.124;2022-12-29T01:55:36;5.43;;;3.45;;
38190;SDS011;25191;47.510;19.124;2022-12-29T02:26:23;4.13;;;2.90;;
38190;SDS011;25191;47.510;19.124;2022-12-29T02:36:46;4.18;;;3.10;;
38190;SDS011;25191;47.510;19.124;2022-12-29T02:46:57;3.47;;;2.67;;
38190;SDS011;25191;47.510;19.124;2022-12-29T02:57:03;3.70;;;2.75;;
38190;SDS011;25191;47.510;19.124;2022-12-29T03:17:20;3.05;;;2.60;;
38190;SDS011;25191;47.510;19.124;2022-12-29T03:27:33;4.43;;;3.03;;
38190;SDS011;25191;47.510;19.124;2022-12-29T03:37:38;4.90;;;3.05;;
38190;SDS011;25191;47.510;19.124;2022-12-29T03:47:40;4.20;;;2.95;;
38190;SDS011;25191;47.510;19.124;2022-12-29T03:57:41;5.00;;;3.08;;
38190;SDS011;25191;47.510;19.124;2022-12-29T04:07:41;3.53;;;2.85;;
38190;SDS011;25191;47.510;19.124;2022-12-29T04:17:42;3.90;;;3.00;;
38190;SDS011;25191;47.510;19.124;2022-12-29T04:27:42;4.72;;;2.92;;
38190;SDS011;25191;47.510;19.124;2022-12-29T04:37:43;3.97;;;2.92;;
38190;SDS011;25191;47.510;19.124;2022-12-29T04:47:43;4.45;;;3.08;;
38190;SDS011;25191;47.510;19.124;2022-12-29T04:57:43;4.28;;;3.20;;
38190;SDS011;25191;47.510;19.124;2022-12-29T05:07:44;4.60;;;3.17;;
38190;SDS011;25191;47.510;19.124;2022-12-29T05:17:45;4.63;;;3.10;;
38190;SDS011;25191;47.510;19.124;2022-12-29T05:27:47;4.20;;;3.20;;
38190;SDS011;25191;47.510;19.124;2022-12-29T05:37:47;4.15;;;3.10;;
38190;SDS011;25191;47.510;19.124;2022-12-29T05:47:48;4.80;;;3.25;;
38190;SDS011;25191;47.510;19.124;2022-12-29T05:57:48;5.18;;;3.60;;
38190;SDS011;25191;47.510;19.124;2022-12-29T06:07:49;4.07;;;3.33;;
38190;SDS011;25191;47.510;19.124;2022-12-29T06:17:49;4.32;;;3.33;;
38190;SDS011;25191;47.510;19.124;2022-12-29T06:27:49;4.55;;;3.22;;
38190;SDS011;25191;47.510;19.124;2022-12-29T06:37:50;4.28;;;3.47;;
38190;SDS011;25191;47.510;19.124;2022-12-29T06:47:50;6.72;;;4.00;;
38190;SDS011;25191;47.510;19.124;2022-12-29T06:57:53;5.28;;;3.67;;
38190;SDS011;25191;47.510;19.124;2022-12-29T07:07:55;4.45;;;3.35;;
38190;SDS011;25191;47.510;19.124;2022-12-29T07:17:55;4.70;;;3.63;;
38190;SDS011;25191;47.510;19.124;2022-12-29T07:27:56;4.53;;;3.33;;
38190;SDS011;25191;47.510;19.124;2022-12-29T07:37:56;4.43;;;3.38;;
38190;SDS011;25191;47.510;19.124;2022-12-29T07:47:57;5.47;;;3.80;;
38190;SDS011;25191;47.510;19.124;2022-12-29T07:57:57;5.32;;;3.80;;
38190;SDS011;25191;47.510;19.124;2022-12-29T08:07:57;4.32;;;3.45;;
38190;SDS011;25191;47.510;19.124;2022-12-29T08:17:58;5.45;;;3.60;;
38190;SDS011;25191;47.510;19.124;2022-12-29T08:27:59;4.93;;;3.90;;
38190;SDS011;25191;47.510;19.124;2022-12-29T08:37:59;5.47;;;4.05;;
38190;SDS011;25191;47.510;19.124;2022-12-29T08:47:59;6.25;;;4.00;;
38190;SDS011;25191;47.510;19.124;2022-12-29T08:58:00;5.03;;;3.88;;
38190;SDS011;25191;47.510;19.124;2022-12-29T09:08:00;5.63;;;3.90;;
38190;SDS011;25191;47.510;19.124;2022-12-29T09:18:01;7.35;;;4.30;;
38190;SDS011;25191;47.510;19.124;2022-12-29T09:28:02;6.85;;;4.30;;
38190;SDS011;25191;47.510;19.124;2022-12-29T09:38:07;6.85;;;4.30;;
38190;SDS011;25191;47.510;19.124;2022-12-29T09:48:11;6.10;;;4.15;;
38190;SDS011;25191;47.510;19.124;2022-12-29T10:08:34;6.55;;;4.40;;
38190;SDS011;25191;47.510;19.124;2022-12-29T10:18:47;7.13;;;4.70;;
38190;SDS011;25191;47.510;19.124;2022-12-29T10:29:16;6.65;;;4.88;;
38190;SDS011;25191;47.510;19.124;2022-12-29T10:39:22;7.75;;;5.18;;
38190;SDS011;25191;47.510;19.124;2022-12-29T10:49:28;7.93;;;4.63;;
38190;SDS011;25191;47.510;19.124;2022-12-29T10:59:33;7.10;;;4.85;;
38190;SDS011;25191;47.510;19.124;2022-12-29T11:09:36;7.35;;;4.85;;
38190;SDS011;25191;47.510;19.124;2022-12-29T11:19:39;6.53;;;4.88;;
38190;SDS011;25191;47.510;19.124;2022-12-29T11:29:40;6.75;;;4.60;;
38190;SDS011;25191;47.510;19.124;2022-12-29T11:39:56;7.00;;;4.85;;
38190;SDS011;25191;47.510;19.124;2022-12-29T11:50:03;5.82;;;4.57;;
38190;SDS011;25191;47.510;19.124;2022-12-29T12:00:20;7.93;;;5.10;;
38190;SDS011;25191;47.510;19.124;2022-12-29T12:10:27;6.75;;;4.93;;
38190;SDS011;25191;47.510;19.124;2022-12-29T12:30:55;6.78;;;5.05;;
38190;SDS011;25191;47.510;19.124;2022-12-29T13:02:01;7.60;;;5.07;;
38190;SDS011;25191;47.510;19.124;2022-12-29T13:13:00;7.00;;;4.75;;
38190;SDS011;25191;47.510;19.124;2022-12-29T13:22:56;6.50;;;4.68;;
38190;SDS011;25191;47.510;19.124;2022-12-29T13:43:35;6.80;;;4.78;;
38190;SDS011;25191;47.510;19.124;2022-12-29T14:03:52;6.68;;;4.82;;
38190;SDS011;25191;47.510;19.124;2022-12-29T14:13:55;7.47;;;5.47;;
38190;SDS011;25191;47.510;19.124;2022-12-29T14:24:25;7.68;;;5.30;;
38190;SDS011;25191;47.510;19.124;2022-12-29T14:34:38;8.10;;;5.43;;
38190;SDS011;25191;47.510;19.124;2022-12-29T14:44:50;6.95;;;5.10;;
38190;SDS011;25191;47.510;19.124;2022-12-29T15:05:30;7.00;;;4.97;;
38190;SDS011;25191;47.510;19.124;2022-12-29T15:15:38;6.43;;;5.05;;
38190;SDS011;25191;47.510;19.124;2022-12-29T15:35:50;6.75;;;5.25;;
38190;SDS011;25191;47.510;19.124;2022-12-29T15:45:53;6.95;;;5.18;;
38190;SDS011;25191;47.510;19.124;2022-12-29T15:55:55;7.07;;;5.28;;
38190;SDS011;25191;47.510;19.124;2022-12-29T16:06:09;6.50;;;5.03;;
38190;SDS011;25191;47.510;19.124;2022-12-29T16:16:16;8.18;;;5.45;;
38190;SDS011;25191;47.510;19.124;2022-12-29T16:26:20;8.38;;;6.03;;
38190;SDS011;25191;47.510;19.124;2022-12-29T16:36:27;7.33;;;5.37;;
38190;SDS011;25191;47.510;19.124;2022-12-29T16:46:27;8.60;;;5.93;;
38190;SDS011;25191;47.510;19.124;2022-12-29T16:56:30;8.48;;;6.25;;
38190;SDS011;25191;47.510;19.124;2022-12-29T17:06:35;10.15;;;6.32;;
38190;SDS011;25191;47.510;19.124;2022-12-29T17:16:35;8.75;;;6.55;;
38190;SDS011;25191;47.510;19.124;2022-12-29T17:26:36;10.73;;;6.95;;
38190;SDS011;25191;47.510;19.124;2022-12-29T17:36:36;9.75;;;7.05;;
38190;SDS011;25191;47.510;19.124;2022-12-29T17:46:36;11.43;;;7.30;;
38190;SDS011;25191;47.510;19.124;2022-12-29T17:56:37;9.10;;;6.75;;
38190;SDS011;25191;47.510;19.124;2022-12-29T18:06:38;9.32;;;7.03;;
38190;SDS011;25191;47.510;19.124;2022-12-29T18:16:39;10.60;;;7.03;;
38190;SDS011;25191;47.510;19.124;2022-12-29T18:26:39;10.52;;;7.35;;
38190;SDS011;25191;47.510;19.124;2022-12-29T18:36:40;10.38;;;7.18;;
38190;SDS011;25191;47.510;19.124;2022-12-29T18:46:40;9.70;;;6.82;;
38190;SDS011;25191;47.510;19.124;2022-12-29T18:56:41;10.27;;;7.30;;
38190;SDS011;25191;47.510;19.124;2022-12-29T19:06:42;10.88;;;7.30;;
38190;SDS011;25191;47.510;19.124;2022-12-29T19:16:43;10.35;;;7.32;;
38190;SDS011;25191;47.510;19.124;2022-12-29T19:26:44;11.38;;;7.75;;
38190;SDS011;25191;47.510;19.124;2022-12-29T19:36:44;11.10;;;7.45;;
38190;SDS011;25191;47.510;19.124;2022-12-29T19:46:45;9.95;;;6.95;;
38190;SDS011;25191;47.510;19.124;2022-12-29T19:56:46;11.52;;;7.50;;
38190;SDS011;25191;47.510;19.124;2022-12-29T20:06:46;11.48;;;7.88;;
38190;SDS011;25191;47.510;19.124;2022-12-29T20:16:47;9.80;;;7.35;;
38190;SDS011;25191;47.510;19.124;2022-12-29T20:26:47;10.10;;;7.25;;
38190;SDS011;25191;47.510;19.124;2022-12-29T20:36:48;10.80;;;7.45;;
38190;SDS011;25191;47.510;19.124;2022-12-29T20:46:49;11.93;;;7.85;;
38190;SDS011;25191;47.510;19.124;2022-12-29T20:56:50;10.55;;;7.35;;
38190;SDS011;25191;47.510;19.124;2022-12-29T21:06:51;10.43;;;7.38;;
38190;SDS011;25191;47.510;19.124;2022-12-29T21:16:52;11.02;;;7.88;;
38190;SDS011;25191;47.510;19.124;2022-12-29T21:26:52;10.82;;;7.72;;
38190;SDS011;25191;47.510;19.124;2022-12-29T21:36:53;10.02;;;7.28;;
38190;SDS011;25191;47.510;19.124;2022-12-29T21:46:53;11.00;;;7.85;;
38190;SDS011;25191;47.510;19.124;2022-12-29T21:56:54;11.48;;;7.70;;
38190;SDS011;25191;47.510;19.124;2022-12-29T22:06:54;11.63;;;7.95;;
38190;SDS011;25191;47.510;19.124;2022-12-29T22:17:13;9.77;;;7.45;;
38190;SDS011;25191;47.510;19.124;2022-12-29T22:27:14;11.52;;;7.50;;
38190;SDS011;25191;47.510;19.124;2022-12-29T22:37:15;12.07;;;7.80;;
38190;SDS011;25191;47.510;19.124;2022-12-29T22:47:15;11.38;;;7.57;;
38190;SDS011;25191;47.510;19.124;2022-12-29T22:57:16;11.10;;;8.02;;
38190;SDS011;25191;47.510;19.124;2022-12-29T23:07:16;10.95;;;7.57;;
38190;SDS011;25191;47.510;19.124;2022-12-29T23:17:17;10.65;;;7.55;;
38190;SDS011;25191;47.510;19.124;2022-12-29T23:27:17;11.50;;;8.10;;
38190;SDS011;25191;47.510;19.124;2022-12-29T23:37:17;10.43;;;7.90;;
38190;SDS011;25191;47.510;19.124;2022-12-29T23:47:19;11.32;;;8.13;;
38190;SDS011;25191;47.510;19.124;2022-12-29T23:57:19;11.52;;;7.80;;
